sensor_id;sensor_type;location;lat;lon;timestamp;pressure;altitude;pressure_sealevel;temperature;humidity
34241;BME280;20503;50.200;19.508;2023-06-10T00:01:25;100640.17;;;16.46;100.00
34241;BME280;20503;50.200;19.508;2023-06-10T00:06:33;100635.00;;;16.40;100.00
34241;BME280;20503;50.200;19.508;2023-06-10T00:11:41;100631.82;;;16.41;100.00
34241;BME280;20503;50.200;19.508;2023-06-10T00:16:48;100645.86;;;16.47;100.00
34241;BME280;20503;50.200;19.508;2023-06-10T00:21:57;100656.75;;;16.53;100.00
34241;BME280;20503;50.200;19.508;2023-06-10T00:27:05;100657.80;;;16.56;100.00
34241;BME280;20503;50.200;19.508;2023-06-10T00:32:11;100661.95;;;16.59;100.00
34241;BME280;20503;50.200;19.508;2023-06-10T00:37:19;100650.25;;;16.52;100.00
34241;BME280;20503;50.200;19.508;2023-06-10T00:42:27;100632.01;;;16.43;100.00
34241;BME280;20503;50.200;19.508;2023-06-10T00:47:35;100641.84;;;16.47;100.00
34241;BME280;20503;50.200;19.508;2023-06-10T00:52:42;100630.14;;;16.40;100.00
34241;BME280;20503;50.200;19.508;2023-06-10T00:57:51;100635.17;;;16.43;100.00
34241;BME280;20503;50.200;19.508;2023-06-10T01:02:57;100664.30;;;16.58;100.00
34241;BME280;20503;50.200;19.508;2023-06-10T01:13:22;100639.02;;;16.40;100.00
34241;BME280;20503;50.200;19.508;2023-06-10T01:18:30;100624.27;;;16.36;100.00
34241;BME280;20503;50.200;19.508;2023-06-10T01:23:32;100616.54;;;16.29;100.00
34241;BME280;20503;50.200;19.508;2023-06-10T01:28:48;100616.73;;;16.32;100.00
34241;BME280;20503;50.200;19.508;2023-06-10T01:33:51;100605.84;;;16.25;100.00
34241;BME280;20503;50.200;19.508;2023-06-10T01:38:53;100606.52;;;16.23;100.00
34241;BME280;20503;50.200;19.508;2023-06-10T01:44:00;100604.65;;;16.20;100.00
34241;BME280;20503;50.200;19.508;2023-06-10T01:49:08;100594.77;;;16.16;100.00
34241;BME280;20503;50.200;19.508;2023-06-10T01:54:16;100596.79;;;16.22;100.00
34241;BME280;20503;50.200;19.508;2023-06-10T01:59:23;100615.03;;;16.31;100.00
34241;BME280;20503;50.200;19.508;2023-06-10T02:04:31;100630.14;;;16.40;100.00
34241;BME280;20503;50.200;19.508;2023-06-10T02:09:38;100639.02;;;16.40;100.00
34241;BME280;20503;50.200;19.508;2023-06-10T02:14:46;100641.70;;;16.44;100.00
34241;BME280;20503;50.200;19.508;2023-06-10T02:19:54;100641.84;;;16.47;100.00
34241;BME280;20503;50.200;19.508;2023-06-10T02:25:03;100635.17;;;16.43;100.00
34241;BME280;20503;50.200;19.508;2023-06-10T02:30:11;100630.14;;;16.40;100.00
34241;BME280;20503;50.200;19.508;2023-06-10T02:35:17;100620.90;;;16.34;100.00
34241;BME280;20503;50.200;19.508;2023-06-10T02:40:25;100611.68;;;16.29;100.00
34241;BME280;20503;50.200;19.508;2023-06-10T02:45:33;100621.57;;;16.32;100.00
34241;BME280;20503;50.200;19.508;2023-06-10T02:50:41;100614.40;;;16.33;100.00
34241;BME280;20503;50.200;19.508;2023-06-10T02:55:49;100616.35;;;16.27;100.00
34241;BME280;20503;50.200;19.508;2023-06-10T03:00:57;100623.90;;;16.31;100.00
34241;BME280;20503;50.200;19.508;2023-06-10T03:06:04;100635.00;;;16.40;100.00
34241;BME280;20503;50.200;19.508;2023-06-10T03:11:12;100643.56;;;16.48;100.00
34241;BME280;20503;50.200;19.508;2023-06-10T03:16:20;100633.33;;;16.39;100.00
34241;BME280;20503;50.200;19.508;2023-06-10T03:21:27;100629.48;;;16.42;100.00
34241;BME280;20503;50.200;19.508;2023-06-10T03:26:35;100620.46;;;16.39;100.00
34241;BME280;20503;50.200;19.508;2023-06-10T03:31:42;100626.80;;;16.38;100.00
34241;BME280;20503;50.200;19.508;2023-06-10T03:36:50;100632.68;;;16.41;100.00
34241;BME280;20503;50.200;19.508;2023-06-10T03:41:58;100635.64;;;16.38;100.00
34241;BME280;20503;50.200;19.508;2023-06-10T03:47:05;100626.61;;;16.35;100.00
34241;BME280;20503;50.200;19.508;2023-06-10T03:52:12;100639.36;;;16.45;100.00
34241;BME280;20503;50.200;19.508;2023-06-10T03:57:20;100646.52;;;16.45;100.00
34241;BME280;20503;50.200;19.508;2023-06-10T04:02:27;100653.78;;;16.56;100.00
34241;BME280;20503;50.200;19.508;2023-06-10T04:07:35;100658.61;;;16.57;100.00
34241;BME280;20503;50.200;19.508;2023-06-10T04:12:44;100655.93;;;16.53;100.00
34241;BME280;20503;50.200;19.508;2023-06-10T04:17:51;100661.95;;;16.59;100.00
34241;BME280;20503;50.200;19.508;2023-06-10T04:22:58;100646.90;;;16.50;100.00
34241;BME280;20503;50.200;19.508;2023-06-10T04:28:06;100691.77;;;16.72;100.00
34241;BME280;20503;50.200;19.508;2023-06-10T04:33:14;100702.18;;;16.83;100.00
34241;BME280;20503;50.200;19.508;2023-06-10T04:38:21;100716.23;;;16.89;100.00
34241;BME280;20503;50.200;19.508;2023-06-10T04:43:29;100708.86;;;16.87;100.00
34241;BME280;20503;50.200;19.508;2023-06-10T04:48:36;100702.18;;;16.83;100.00
34241;BME280;20503;50.200;19.508;2023-06-10T04:53:44;100739.88;;;17.05;100.00
34241;BME280;20503;50.200;19.508;2023-06-10T04:58:51;100712.21;;;16.89;100.00
34241;BME280;20503;50.200;19.508;2023-06-10T05:03:59;100701.51;;;16.85;100.00
34241;BME280;20503;50.200;19.508;2023-06-10T05:09:07;100676.85;;;16.65;100.00
34241;BME280;20503;50.200;19.508;2023-06-10T05:14:14;100697.78;;;16.78;100.00
34241;BME280;20503;50.200;19.508;2023-06-10T05:19:22;100720.10;;;16.98;100.00
34241;BME280;20503;50.200;19.508;2023-06-10T05:24:29;100739.88;;;17.05;100.00
34241;BME280;20503;50.200;19.508;2023-06-10T05:29:37;100760.14;;;17.19;100.00
34241;BME280;20503;50.200;19.508;2023-06-10T05:34:45;100747.05;;;17.04;100.00
34241;BME280;20503;50.200;19.508;2023-06-10T05:39:53;100784.28;;;17.31;100.00
34241;BME280;20503;50.200;19.508;2023-06-10T05:45:00;100777.74;;;17.30;100.00
34241;BME280;20503;50.200;19.508;2023-06-10T05:50:08;100786.63;;;17.30;100.00
34241;BME280;20503;50.200;19.508;2023-06-10T05:55:15;100866.45;;;17.80;100.00
34241;BME280;20503;50.200;19.508;2023-06-10T06:00:23;100825.52;;;17.58;100.00
34241;BME280;20503;50.200;19.508;2023-06-10T06:05:30;100838.96;;;17.66;100.00
34241;BME280;20503;50.200;19.508;2023-06-10T06:10:38;100812.43;;;17.43;100.00
34241;BME280;20503;50.200;19.508;2023-06-10T06:15:46;100778.05;;;17.23;100.00
34241;BME280;20503;50.200;19.508;2023-06-10T06:20:54;100813.80;;;17.51;100.00
34241;BME280;20503;50.200;19.508;2023-06-10T06:26:01;100868.29;;;17.84;100.00
34241;BME280;20503;50.200;19.508;2023-06-10T06:31:09;100850.34;;;17.68;100.00
34241;BME280;20503;50.200;19.508;2023-06-10T06:36:16;100825.19;;;17.53;100.00
34241;BME280;20503;50.200;19.508;2023-06-10T06:41:23;100897.45;;;17.99;100.00
34241;BME280;20503;50.200;19.508;2023-06-10T06:46:30;100953.68;;;18.32;100.00
34241;BME280;20503;50.200;19.508;2023-06-10T06:51:38;100987.23;;;18.52;100.00
34241;BME280;20503;50.200;19.508;2023-06-10T06:56:46;101175.10;;;19.61;100.00
34241;BME280;20503;50.200;19.508;2023-06-10T07:01:54;101478.75;;;21.44;100.00
34241;BME280;20503;50.200;19.508;2023-06-10T07:07:02;101646.30;;;22.43;100.00
34241;BME280;20503;50.200;19.508;2023-06-10T07:12:10;101483.79;;;21.47;100.00
34241;BME280;20503;50.200;19.508;2023-06-10T07:17:17;101477.92;;;21.43;100.00
34241;BME280;20503;50.200;19.508;2023-06-10T07:22:25;101346.70;;;20.66;100.00
34241;BME280;20503;50.200;19.508;2023-06-10T07:27:33;101356.96;;;20.74;100.00
34241;BME280;20503;50.200;19.508;2023-06-10T07:32:40;101255.96;;;20.12;100.00
34241;BME280;20503;50.200;19.508;2023-06-10T07:37:48;101235.12;;;20.02;100.00
34241;BME280;20503;50.200;19.508;2023-06-10T07:46:57;101236.57;;;20.00;100.00
34241;BME280;20503;50.200;19.508;2023-06-10T07:52:06;101424.92;;;21.12;100.00
34241;BME280;20503;50.200;19.508;2023-06-10T07:57:12;101349.07;;;20.65;100.00
34241;BME280;20503;50.200;19.508;2023-06-10T08:02:20;101347.71;;;20.69;100.00
34241;BME280;20503;50.200;19.508;2023-06-10T08:07:29;101423.24;;;21.11;100.00
34241;BME280;20503;50.200;19.508;2023-06-10T08:12:37;101526.73;;;21.72;100.00
34241;BME280;20503;50.200;19.508;2023-06-10T08:17:44;101357.64;;;20.72;100.00
34241;BME280;20503;50.200;19.508;2023-06-10T08:22:52;101345.86;;;20.65;100.00
34241;BME280;20503;50.200;19.508;2023-06-10T08:28:00;101357.79;;;20.75;100.00
34241;BME280;20503;50.200;19.508;2023-06-10T08:33:08;101459.41;;;21.32;100.00
34241;BME280;20503;50.200;19.508;2023-06-10T08:38:15;101620.83;;;22.26;100.00
34241;BME280;20503;50.200;19.508;2023-06-10T08:48:39;101720.73;;;22.92;100.00
34241;BME280;20503;50.200;19.508;2023-06-10T08:53:49;101623.68;;;22.32;100.00
34241;BME280;20503;50.200;19.508;2023-06-10T08:58:52;101843.43;;;23.60;100.00
34241;BME280;20503;50.200;19.508;2023-06-10T09:03:55;102223.20;;;25.84;72.87
34241;BME280;20503;50.200;19.508;2023-06-10T09:09:02;101817.29;;;23.44;88.87
34241;BME280;20503;50.200;19.508;2023-06-10T09:14:10;101738.75;;;22.96;85.99
34241;BME280;20503;50.200;19.508;2023-06-10T09:19:17;101574.55;;;21.98;100.00
34241;BME280;20503;50.200;19.508;2023-06-10T09:24:24;101838.52;;;23.59;82.62
34241;BME280;20503;50.200;19.508;2023-06-10T09:29:31;101893.37;;;23.92;80.04
34241;BME280;20503;50.200;19.508;2023-06-10T09:34:38;102066.98;;;24.92;74.08
34241;BME280;20503;50.200;19.508;2023-06-10T09:44:57;102030.68;;;24.71;73.53
34241;BME280;20503;50.200;19.508;2023-06-10T09:50:01;102020.56;;;24.65;75.31
34241;BME280;20503;50.200;19.508;2023-06-10T09:55:09;101903.30;;;23.95;76.17
34241;BME280;20503;50.200;19.508;2023-06-10T10:00:17;101631.95;;;22.35;84.57
34241;BME280;20503;50.200;19.508;2023-06-10T10:05:24;101624.20;;;22.28;84.84
34241;BME280;20503;50.200;19.508;2023-06-10T10:10:32;101641.56;;;22.45;82.04
34241;BME280;20503;50.200;19.508;2023-06-10T10:15:40;101675.05;;;22.63;81.35
34241;BME280;20503;50.200;19.508;2023-06-10T10:20:50;101784.45;;;23.25;79.05
34241;BME280;20503;50.200;19.508;2023-06-10T10:25:55;101824.06;;;23.48;80.88
34241;BME280;20503;50.200;19.508;2023-06-10T10:31:08;101717.02;;;22.85;79.19
34241;BME280;20503;50.200;19.508;2023-06-10T10:36:13;101696.96;;;22.76;78.74
34241;BME280;20503;50.200;19.508;2023-06-10T10:41:18;101807.37;;;23.41;76.98
34241;BME280;20503;50.200;19.508;2023-06-10T10:46:24;101832.48;;;23.53;77.03
34241;BME280;20503;50.200;19.508;2023-06-10T10:51:34;101871.11;;;23.74;74.10
34241;BME280;20503;50.200;19.508;2023-06-10T10:56:39;101816.48;;;23.44;74.35
34241;BME280;20503;50.200;19.508;2023-06-10T11:01:46;101688.25;;;22.66;80.09
34241;BME280;20503;50.200;19.508;2023-06-10T11:06:55;101525.91;;;21.72;81.13
34241;BME280;20503;50.200;19.508;2023-06-10T11:12:05;101637.34;;;22.43;78.81
34241;BME280;20503;50.200;19.508;2023-06-10T11:17:18;101637.85;;;22.38;79.52
34241;BME280;20503;50.200;19.508;2023-06-10T11:22:20;101667.17;;;22.53;76.71
34241;BME280;20503;50.200;19.508;2023-06-10T11:27:24;101739.60;;;22.96;77.40
34241;BME280;20503;50.200;19.508;2023-06-10T11:32:33;101572.35;;;22.02;79.09
34241;BME280;20503;50.200;19.508;2023-06-10T11:37:39;101376.12;;;20.83;81.18
34241;BME280;20503;50.200;19.508;2023-06-10T11:42:47;101457.73;;;21.31;80.95
34241;BME280;20503;50.200;19.508;2023-06-10T11:47:56;101613.42;;;22.24;79.98
34241;BME280;20503;50.200;19.508;2023-06-10T11:53:03;101616.78;;;22.26;77.41
34241;BME280;20503;50.200;19.508;2023-06-10T12:03:24;101579.77;;;22.04;80.06
34241;BME280;20503;50.200;19.508;2023-06-10T12:08:27;101697.13;;;22.78;76.37
34241;BME280;20503;50.200;19.508;2023-06-10T12:13:33;101596.06;;;22.18;77.07
34241;BME280;20503;50.200;19.508;2023-06-10T12:18:43;101545.43;;;21.86;77.74
34241;BME280;20503;50.200;19.508;2023-06-10T12:29:02;101616.78;;;22.26;75.40
34241;BME280;20503;50.200;19.508;2023-06-10T12:34:09;101676.74;;;22.64;73.62
34241;BME280;20503;50.200;19.508;2023-06-10T12:39:11;101713.65;;;22.83;74.38
34241;BME280;20503;50.200;19.508;2023-06-10T12:44:27;101709.42;;;22.81;73.70
34241;BME280;20503;50.200;19.508;2023-06-10T12:49:26;101722.91;;;22.89;75.02
34241;BME280;20503;50.200;19.508;2023-06-10T12:54:33;101970.91;;;24.38;71.21
34241;BME280;20503;50.200;19.508;2023-06-10T12:59:40;101810.73;;;23.43;72.02
34241;BME280;20503;50.200;19.508;2023-06-10T13:04:50;101666.34;;;22.53;76.30
34241;BME280;20503;50.200;19.508;2023-06-10T13:09:55;101818.68;;;23.40;74.97
34241;BME280;20503;50.200;19.508;2023-06-10T13:15:04;101720.38;;;22.87;74.15
34241;BME280;20503;50.200;19.508;2023-06-10T13:20:11;101830.79;;;23.52;70.43
34241;BME280;20503;50.200;19.508;2023-06-10T13:25:18;101777.55;;;23.18;71.09
34241;BME280;20503;50.200;19.508;2023-06-10T13:30:25;101719.56;;;22.87;71.15
34241;BME280;20503;50.200;19.508;2023-06-10T13:35:33;101779.38;;;23.22;72.03
34241;BME280;20503;50.200;19.508;2023-06-10T13:40:40;101786.84;;;23.24;73.61
34241;BME280;20503;50.200;19.508;2023-06-10T13:45:48;101677.43;;;22.62;74.58
34241;BME280;20503;50.200;19.508;2023-06-10T13:50:55;101793.71;;;23.30;72.59
34241;BME280;20503;50.200;19.508;2023-06-10T13:56:03;101697.83;;;22.76;75.15
34241;BME280;20503;50.200;19.508;2023-06-10T14:01:10;101772.64;;;23.18;74.00
34241;BME280;20503;50.200;19.508;2023-06-10T14:06:18;101699.50;;;22.77;75.30
34241;BME280;20503;50.200;19.508;2023-06-10T14:11:26;101781.92;;;23.23;74.98
34241;BME280;20503;50.200;19.508;2023-06-10T14:16:33;101702.56;;;22.74;74.03
34241;BME280;20503;50.200;19.508;2023-06-10T14:21:40;101921.87;;;24.06;70.75
34241;BME280;20503;50.200;19.508;2023-06-10T14:26:48;101605.15;;;22.21;77.17
34241;BME280;20503;50.200;19.508;2023-06-10T14:31:55;101592.53;;;22.14;75.65
34241;BME280;20503;50.200;19.508;2023-06-10T14:37:04;101588.84;;;22.07;76.68
34241;BME280;20503;50.200;19.508;2023-06-10T14:42:11;101808.89;;;23.39;74.53
34241;BME280;20503;50.200;19.508;2023-06-10T14:47:18;101593.21;;;22.12;75.44
34241;BME280;20503;50.200;19.508;2023-06-10T14:52:26;101553.65;;;21.88;76.82
34241;BME280;20503;50.200;19.508;2023-06-10T14:57:33;101571.32;;;21.99;76.57
34241;BME280;20503;50.200;19.508;2023-06-10T15:02:41;101538.52;;;21.79;78.27
34241;BME280;20503;50.200;19.508;2023-06-10T15:07:48;101664.80;;;22.54;75.31
34241;BME280;20503;50.200;19.508;2023-06-10T15:12:56;101615.11;;;22.25;78.56
34241;BME280;20503;50.200;19.508;2023-06-10T15:18:04;101382.04;;;20.87;82.77
34241;BME280;20503;50.200;19.508;2023-06-10T15:23:11;101446.79;;;21.25;84.63
34241;BME280;20503;50.200;19.508;2023-06-10T15:28:19;101524.38;;;21.73;80.65
34241;BME280;20503;50.200;19.508;2023-06-10T15:33:26;101454.37;;;21.29;77.91
34241;BME280;20503;50.200;19.508;2023-06-10T15:38:34;101354.10;;;20.68;79.93
34241;BME280;20503;50.200;19.508;2023-06-10T15:43:41;101387.93;;;20.90;79.19
34241;BME280;20503;50.200;19.508;2023-06-10T15:48:49;101380.15;;;20.83;79.00
34241;BME280;20503;50.200;19.508;2023-06-10T15:53:56;101324.18;;;20.55;79.41
34241;BME280;20503;50.200;19.508;2023-06-10T15:59:04;101316.45;;;20.48;80.47
34241;BME280;20503;50.200;19.508;2023-06-10T16:04:12;101307.03;;;20.40;78.06
34241;BME280;20503;50.200;19.508;2023-06-10T16:09:20;101294.59;;;20.35;78.18
34241;BME280;20503;50.200;19.508;2023-06-10T16:14:28;101296.95;;;20.34;78.05
34241;BME280;20503;50.200;19.508;2023-06-10T16:19:35;101289.55;;;20.32;78.21
34241;BME280;20503;50.200;19.508;2023-06-10T16:24:43;101273.42;;;20.20;79.34
34241;BME280;20503;50.200;19.508;2023-06-10T16:29:54;101311.05;;;20.40;80.36
34241;BME280;20503;50.200;19.508;2023-06-10T16:34:58;101234.90;;;19.99;81.49
34241;BME280;20503;50.200;19.508;2023-06-10T16:40:07;101222.30;;;19.92;81.66
34241;BME280;20503;50.200;19.508;2023-06-10T16:45:14;101193.09;;;19.77;81.14
34241;BME280;20503;50.200;19.508;2023-06-10T16:50:22;101170.58;;;19.66;81.40
34241;BME280;20503;50.200;19.508;2023-06-10T16:55:29;101173.42;;;19.60;80.46
34241;BME280;20503;50.200;19.508;2023-06-10T17:00:38;101167.54;;;19.57;80.18
34241;BME280;20503;50.200;19.508;2023-06-10T17:05:45;101145.05;;;19.46;80.11
34241;BME280;20503;50.200;19.508;2023-06-10T17:10:53;101131.62;;;19.38;78.75
34241;BME280;20503;50.200;19.508;2023-06-10T17:16:01;101126.92;;;19.28;78.79
34241;BME280;20503;50.200;19.508;2023-06-10T17:21:09;101119.02;;;19.30;78.92
34241;BME280;20503;50.200;19.508;2023-06-10T17:26:17;101096.35;;;19.17;79.88
34241;BME280;20503;50.200;19.508;2023-06-10T17:31:25;101128.92;;;19.34;80.15
34241;BME280;20503;50.200;19.508;2023-06-10T17:36:33;101134.97;;;19.40;80.64
34241;BME280;20503;50.200;19.508;2023-06-10T17:41:41;101146.89;;;19.49;80.43
34241;BME280;20503;50.200;19.508;2023-06-10T17:46:48;101168.20;;;19.55;81.04
34241;BME280;20503;50.200;19.508;2023-06-10T17:51:56;101128.43;;;19.38;81.38
34241;BME280;20503;50.200;19.508;2023-06-10T17:57:04;101091.78;;;19.09;83.16
34241;BME280;20503;50.200;19.508;2023-06-10T18:02:11;101094.83;;;19.18;84.13
34241;BME280;20503;50.200;19.508;2023-06-10T18:07:20;101108.77;;;19.22;83.69
34241;BME280;20503;50.200;19.508;2023-06-10T18:12:27;101088.58;;;19.10;85.17
34241;BME280;20503;50.200;19.508;2023-06-10T18:17:35;101043.27;;;18.83;86.31
34241;BME280;20503;50.200;19.508;2023-06-10T18:22:43;101012.41;;;18.67;87.91
34241;BME280;20503;50.200;19.508;2023-06-10T18:27:51;100983.88;;;18.50;89.40
34241;BME280;20503;50.200;19.508;2023-06-10T18:32:59;100965.22;;;18.37;91.20
34241;BME280;20503;50.200;19.508;2023-06-10T18:38:07;100929.17;;;18.15;92.02
34241;BME280;20503;50.200;19.508;2023-06-10T18:43:14;100913.38;;;18.08;92.39
34241;BME280;20503;50.200;19.508;2023-06-10T18:48:22;100875.82;;;17.88;94.51
34241;BME280;20503;50.200;19.508;2023-06-10T18:53:30;100876.49;;;17.86;95.45
34241;BME280;20503;50.200;19.508;2023-06-10T18:58:37;100850.34;;;17.68;96.00
34241;BME280;20503;50.200;19.508;2023-06-10T19:03:45;100825.19;;;17.53;96.38
34241;BME280;20503;50.200;19.508;2023-06-10T19:08:54;100816.98;;;17.51;96.37
34241;BME280;20503;50.200;19.508;2023-06-10T19:14:01;100814.10;;;17.44;96.02
34241;BME280;20503;50.200;19.508;2023-06-10T19:19:09;100801.24;;;17.44;94.91
34241;BME280;20503;50.200;19.508;2023-06-10T19:24:17;100799.38;;;17.40;94.75
34241;BME280;20503;50.200;19.508;2023-06-10T19:29:25;100809.08;;;17.41;94.62
34241;BME280;20503;50.200;19.508;2023-06-10T19:34:32;100799.38;;;17.40;95.09
34241;BME280;20503;50.200;19.508;2023-06-10T19:39:40;100776.38;;;17.22;96.93
34241;BME280;20503;50.200;19.508;2023-06-10T19:44:48;100765.84;;;17.20;97.91
34241;BME280;20503;50.200;19.508;2023-06-10T19:49:56;100763.16;;;17.16;98.87
34241;BME280;20503;50.200;19.508;2023-06-10T19:55:05;100739.69;;;17.03;100.00
34241;BME280;20503;50.200;19.508;2023-06-10T20:00:12;100732.49;;;17.03;100.00
34241;BME280;20503;50.200;19.508;2023-06-10T20:05:19;100709.86;;;16.90;100.00
34241;BME280;20503;50.200;19.508;2023-06-10T20:10:27;100708.68;;;16.84;100.00
34241;BME280;20503;50.200;19.508;2023-06-10T20:15:34;100696.11;;;16.77;100.00
34241;BME280;20503;50.200;19.508;2023-06-10T20:20:42;100674.34;;;16.64;100.00
34241;BME280;20503;50.200;19.508;2023-06-10T20:25:50;100667.63;;;16.60;100.00
34241;BME280;20503;50.200;19.508;2023-06-10T20:31:00;100653.25;;;16.49;100.00
34241;BME280;20503;50.200;19.508;2023-06-10T20:36:09;100628.28;;;16.36;100.00
34241;BME280;20503;50.200;19.508;2023-06-10T20:41:15;100633.33;;;16.39;100.00
34241;BME280;20503;50.200;19.508;2023-06-10T20:46:21;100613.19;;;16.27;100.00
34241;BME280;20503;50.200;19.508;2023-06-10T20:51:29;100607.33;;;16.24;100.00
34241;BME280;20503;50.200;19.508;2023-06-10T20:56:36;100600.80;;;16.22;100.00
34241;BME280;20503;50.200;19.508;2023-06-10T21:01:44;100601.30;;;16.18;100.00
34241;BME280;20503;50.200;19.508;2023-06-10T21:06:51;100591.62;;;16.17;100.00
34241;BME280;20503;50.200;19.508;2023-06-10T21:11:59;100595.12;;;16.21;100.00
34241;BME280;20503;50.200;19.508;2023-06-10T21:17:08;100577.38;;;16.08;100.00
34241;BME280;20503;50.200;19.508;2023-06-10T21:22:15;100566.50;;;16.02;100.00
34241;BME280;20503;50.200;19.508;2023-06-10T21:27:24;100547.26;;;15.90;100.00
34241;BME280;20503;50.200;19.508;2023-06-10T21:32:31;100557.10;;;15.94;100.00
34241;BME280;20503;50.200;19.508;2023-06-10T21:37:38;100542.88;;;15.85;100.00
34241;BME280;20503;50.200;19.508;2023-06-10T21:42:46;100526.83;;;15.73;100.00
34241;BME280;20503;50.200;19.508;2023-06-10T21:47:54;100527.65;;;15.74;100.00
34241;BME280;20503;50.200;19.508;2023-06-10T21:53:02;100501.88;;;15.61;100.00
34241;BME280;20503;50.200;19.508;2023-06-10T21:58:10;100481.16;;;15.51;100.00
34241;BME280;20503;50.200;19.508;2023-06-10T22:03:18;100487.50;;;15.50;100.00
34241;BME280;20503;50.200;19.508;2023-06-10T22:08:26;100466.95;;;15.42;100.00
34241;BME280;20503;50.200;19.508;2023-06-10T22:13:33;100451.06;;;15.33;100.00
34241;BME280;20503;50.200;19.508;2023-06-10T22:18:41;100444.97;;;15.27;100.00
34241;BME280;20503;50.200;19.508;2023-06-10T22:23:49;100440.14;;;15.26;100.00
34241;BME280;20503;50.200;19.508;2023-06-10T22:28:57;100436.62;;;15.22;100.00
34241;BME280;20503;50.200;19.508;2023-06-10T22:34:04;100415.05;;;15.11;100.00
34241;BME280;20503;50.200;19.508;2023-06-10T22:39:11;100409.20;;;15.08;100.00
34241;BME280;20503;50.200;19.508;2023-06-10T22:44:19;100411.52;;;15.07;100.00
34241;BME280;20503;50.200;19.508;2023-06-10T22:49:27;100394.16;;;14.99;100.00
34241;BME280;20503;50.200;19.508;2023-06-10T22:54:36;100392.45;;;14.98;100.00
34241;BME280;20503;50.200;19.508;2023-06-10T22:59:43;100387.64;;;14.98;100.00
34241;BME280;20503;50.200;19.508;2023-06-10T23:04:52;100395.45;;;14.95;100.00
34241;BME280;20503;50.200;19.508;2023-06-10T23:09:59;100384.58;;;14.89;100.00
34241;BME280;20503;50.200;19.508;2023-06-10T23:15:07;100390.43;;;14.92;100.00
34241;BME280;20503;50.200;19.508;2023-06-10T23:20:15;100370.75;;;14.85;100.00
34241;BME280;20503;50.200;19.508;2023-06-10T23:25:23;100363.22;;;14.81;100.00
34241;BME280;20503;50.200;19.508;2023-06-10T23:30:31;100359.88;;;14.79;100.00
34241;BME280;20503;50.200;19.508;2023-06-10T23:35:38;100348.16;;;14.72;100.00
34241;BME280;20503;50.200;19.508;2023-06-10T23:40:46;100342.98;;;14.66;100.00
34241;BME280;20503;50.200;19.508;2023-06-10T23:45:54;100341.28;;;14.65;100.00
34241;BME280;20503;50.200;19.508;2023-06-10T23:51:02;100335.26;;;14.59;100.00
34241;BME280;20503;50.200;19.508;2023-06-10T23:56:10;100329.59;;;14.58;100.00
